Time,TemperatureF,DewpointF,PressureIn,WindDirection,WindDirectionDegrees,WindSpeedMPH,WindSpeedGustMPH,Humidity,HourlyPrecipIn,Conditions,Clouds,dailyrainin,SoftwareType,DateUTC
2013-04-30 00:01:00,57.7,56.6,30.05,SE,136,0.0,0.0,96,0.00,,---,0.21,VWS V14.01,2013-04-30 04:01:00,
2013-04-30 00:02:00,57.5,56.4,30.05,SE,136,0.0,0.0,96,0.00,,---,0.00,VWS V14.01,2013-04-30 04:02:00,
2013-04-30 00:03:00,57.4,56.3,30.04,SE,136,0.0,0.0,96,0.00,,---,0.00,VWS V14.01,2013-04-30 04:03:00,
2013-04-30 00:07:00,57.4,56.3,30.04,SE,136,0.0,0.0,96,0.00,,---,0.00,VWS V14.01,2013-04-30 04:07:00,
2013-04-30 00:12:00,57.3,56.2,30.04,SE,136,0.0,0.0,96,0.00,,---,0.00,VWS V14.01,2013-04-30 04:12:00,
2013-04-30 00:17:00,57.1,56.0,30.04,SE,136,0.0,0.0,96,0.00,,---,0.00,VWS V14.01,2013-04-30 04:17:00,
2013-04-30 00:22:00,57.2,56.4,30.04,SE,136,0.0,0.0,97,0.00,,---,0.00,VWS V14.01,2013-04-30 04:22:00,
2013-04-30 00:27:00,57.2,56.4,30.04,SE,136,0.0,0.0,97,0.00,,---,0.00,VWS V14.01,2013-04-30 04:27:00,
2013-04-30 00:32:00,56.7,55.9,30.04,SE,136,0.0,0.0,97,0.00,,---,0.00,VWS V14.01,2013-04-30 04:32:00,
2013-04-30 00:37:00,56.6,55.5,30.04,SE,136,0.0,0.0,96,0.00,,---,0.00,VWS V14.01,2013-04-30 04:37:00,
2013-04-30 00:42:00,56.6,55.8,30.04,SE,136,0.0,0.0,97,0.00,,---,0.00,VWS V14.01,2013-04-30 04:42:00,
2013-04-30 00:47:00,56.6,55.8,30.04,SE,136,0.0,0.0,97,0.00,,---,0.00,VWS V14.01,2013-04-30 04:47:00,
2013-04-30 00:53:00,56.5,55.7,30.04,SE,136,0.0,0.0,97,0.00,,---,0.00,VWS V14.01,2013-04-30 04:53:00,
2013-04-30 00:58:00,56.4,55.6,30.04,SE,136,0.0,0.0,97,0.00,,---,0.00,VWS V14.01,2013-04-30 04:58:00,
2013-04-30 01:03:00,56.3,55.5,30.04,SE,136,0.0,0.0,97,0.00,,---,0.00,VWS V14.01,2013-04-30 05:03:00,
2013-04-30 01:08:00,56.2,55.4,30.03,SE,136,0.0,0.0,97,0.00,,---,0.00,VWS V14.01,2013-04-30 05:08:00,
2013-04-30 01:13:00,56.1,55.0,30.03,SE,136,0.0,0.0,96,0.00,,---,0.00,VWS V14.01,2013-04-30 05:13:00,
2013-04-30 01:18:00,56.0,54.9,30.03,SE,136,0.0,0.0,96,0.00,,---,0.00,VWS V14.01,2013-04-30 05:18:00,
2013-04-30 01:23:00,55.9,54.8,30.03,SE,136,0.0,0.0,96,0.00,,---,0.00,VWS V14.01,2013-04-30 05:23:00,
2013-04-30 01:28:00,55.8,55.0,30.03,SE,136,0.0,0.0,97,0.00,,---,0.00,VWS V14.01,2013-04-30 05:28:00,
2013-04-30 01:33:00,55.8,55.0,30.03,SE,136,0.0,0.0,97,0.00,,---,0.00,VWS V14.01,2013-04-30 05:33:00,
2013-04-30 01:38:00,55.7,54.9,30.03,SE,136,0.0,0.0,97,0.00,,---,0.00,VWS V14.01,2013-04-30 05:38:00,
2013-04-30 01:44:00,55.7,54.9,30.03,SE,136,0.0,0.0,97,0.00,,---,0.00,VWS V14.01,2013-04-30 05:44:00,
2013-04-30 01:49:00,55.7,54.9,30.03,SE,136,0.0,0.0,97,0.00,,---,0.00,VWS V14.01,2013-04-30 05:49:00,
2013-04-30 01:54:00,55.6,54.8,30.03,SE,136,0.0,0.0,97,0.00,,---,0.00,VWS V14.01,2013-04-30 05:54:00,
2013-04-30 01:59:00,55.6,54.8,30.03,SE,136,0.0,0.0,97,0.00,,---,0.00,VWS V14.01,2013-04-30 05:59:00,
2013-04-30 02:04:00,55.6,54.8,30.03,SE,136,0.0,0.0,97,0.00,,---,0.00,VWS V14.01,2013-04-30 06:04:00,
2013-04-30 02:09:00,55.7,54.9,30.03,SE,136,0.0,0.0,97,0.00,,---,0.00,VWS V14.01,2013-04-30 06:09:00,
2013-04-30 02:14:00,55.8,55.0,30.03,SE,136,0.0,0.0,97,0.00,,---,0.00,VWS V14.01,2013-04-30 06:14:00,
2013-04-30 02:19:00,55.9,55.1,30.03,SE,136,0.0,0.0,97,0.00,,---,0.00,VWS V14.01,2013-04-30 06:19:00,
2013-04-30 02:25:00,56.1,55.3,30.03,SE,136,0.0,0.0,97,0.00,,---,0.00,VWS V14.01,2013-04-30 06:25:00,
2013-04-30 02:30:00,56.2,55.4,30.03,SE,136,0.0,0.0,97,0.00,,---,0.00,VWS V14.01,2013-04-30 06:30:00,
2013-04-30 02:35:00,56.4,55.6,30.03,SE,136,0.0,0.0,97,0.00,,---,0.00,VWS V14.01,2013-04-30 06:35:00,
2013-04-30 02:40:00,56.6,55.8,30.04,SE,136,0.0,0.0,97,0.00,,---,0.00,VWS V14.01,2013-04-30 06:40:00,
2013-04-30 02:45:00,56.8,56.0,30.03,SE,136,0.0,0.0,97,0.00,,---,0.00,VWS V14.01,2013-04-30 06:45:00,
2013-04-30 02:51:00,57.2,56.4,30.03,SE,136,0.0,0.0,97,0.00,,---,0.00,VWS V14.01,2013-04-30 06:51:00,
2013-04-30 02:56:00,57.7,56.9,30.04,SE,136,0.0,1.0,97,0.00,,---,0.00,VWS V14.01,2013-04-30 06:56:00,
2013-04-30 03:01:00,57.9,57.1,30.03,SE,136,0.0,0.0,97,0.00,,---,0.00,VWS V14.01,2013-04-30 07:01:00,
2013-04-30 03:06:00,58.0,57.2,30.04,SE,136,0.0,0.0,97,0.00,,---,0.00,VWS V14.01,2013-04-30 07:06:00,
2013-04-30 03:11:00,58.2,57.4,30.04,SE,136,0.0,0.0,97,0.00,,---,0.00,VWS V14.01,2013-04-30 07:11:00,
2013-04-30 03:16:00,58.4,57.6,30.04,SE,136,0.0,0.0,97,0.00,,---,0.00,VWS V14.01,2013-04-30 07:16:00,
2013-04-30 03:21:00,58.4,57.6,30.04,SE,136,0.0,0.0,97,0.00,,---,0.00,VWS V14.01,2013-04-30 07:21:00,
2013-04-30 03:26:00,58.5,57.7,30.04,SE,136,0.0,0.0,97,0.00,,---,0.00,VWS V14.01,2013-04-30 07:26:00,
2013-04-30 03:31:00,58.6,57.8,30.04,SE,136,0.0,1.0,97,0.00,,---,0.00,VWS V14.01,2013-04-30 07:31:00,
2013-04-30 03:37:00,58.7,57.8,30.04,SE,131,0.0,1.0,97,0.00,,---,0.00,VWS V14.01,2013-04-30 07:37:00,
2013-04-30 03:42:00,58.8,58.0,30.05,SE,131,0.0,1.0,97,0.00,,---,0.00,VWS V14.01,2013-04-30 07:42:00,
2013-04-30 03:47:00,58.9,58.0,30.05,SE,131,0.0,0.0,97,0.00,,---,0.00,VWS V14.01,2013-04-30 07:47:00,
2013-04-30 03:52:00,58.9,58.0,30.05,SE,131,0.0,0.0,97,0.00,,---,0.00,VWS V14.01,2013-04-30 07:52:00,
2013-04-30 03:57:00,59.1,58.2,30.05,SE,131,0.0,0.0,97,0.00,,---,0.00,VWS V14.01,2013-04-30 07:57:00,
2013-04-30 04:02:00,59.1,58.2,30.05,SE,131,0.0,0.0,97,0.00,,---,0.00,VWS V14.01,2013-04-30 08:02:00,
2013-04-30 04:07:00,59.1,58.2,30.05,SE,131,0.0,0.0,97,0.00,,---,0.00,VWS V14.01,2013-04-30 08:07:00,
2013-04-30 04:13:00,59.2,58.3,30.05,SE,131,0.0,0.0,97,0.00,,---,0.00,VWS V14.01,2013-04-30 08:13:00,
2013-04-30 04:18:00,59.3,58.5,30.05,SE,131,0.0,0.0,97,0.00,,---,0.00,VWS V14.01,2013-04-30 08:18:00,
2013-04-30 04:23:00,59.3,58.5,30.05,SE,128,0.0,1.0,97,0.00,,---,0.00,VWS V14.01,2013-04-30 08:23:00,
2013-04-30 04:28:00,59.4,58.5,30.05,SE,128,0.0,1.0,97,0.00,,---,0.00,VWS V14.01,2013-04-30 08:28:00,
2013-04-30 04:33:00,59.4,58.5,30.05,SE,128,0.0,0.0,97,0.00,,---,0.00,VWS V14.01,2013-04-30 08:33:00,
2013-04-30 04:38:00,59.4,58.5,30.05,SE,128,0.0,0.0,97,0.00,,---,0.00,VWS V14.01,2013-04-30 08:38:00,
2013-04-30 04:43:00,59.5,58.7,30.05,SE,128,0.0,0.0,97,0.00,,---,0.00,VWS V14.01,2013-04-30 08:43:00,
2013-04-30 04:48:00,59.5,58.7,30.05,SE,128,0.0,0.0,97,0.00,,---,0.00,VWS V14.01,2013-04-30 08:48:00,
2013-04-30 04:53:00,59.6,58.8,30.05,SE,128,0.0,0.0,97,0.00,,---,0.00,VWS V14.01,2013-04-30 08:53:00,
2013-04-30 04:58:00,59.6,58.8,30.05,SE,126,0.0,2.0,97,0.00,,---,0.00,VWS V14.01,2013-04-30 08:58:00,
2013-04-30 05:04:00,59.6,58.8,30.06,SE,126,0.0,0.0,97,0.00,,---,0.00,VWS V14.01,2013-04-30 09:04:00,
2013-04-30 05:09:00,59.6,58.8,30.06,SE,126,0.0,0.0,97,0.00,,---,0.00,VWS V14.01,2013-04-30 09:09:00,
2013-04-30 05:14:00,59.7,58.8,30.06,SE,126,0.0,0.0,97,0.00,,---,0.00,VWS V14.01,2013-04-30 09:14:00,
2013-04-30 05:19:00,59.7,58.8,30.06,SE,126,0.0,0.0,97,0.00,,---,0.00,VWS V14.01,2013-04-30 09:19:00,
2013-04-30 05:24:00,59.7,58.8,30.06,SE,126,0.0,0.0,97,0.00,,---,0.00,VWS V14.01,2013-04-30 09:24:00,
2013-04-30 05:29:00,59.7,58.8,30.06,SE,126,0.0,0.0,97,0.00,,---,0.00,VWS V14.01,2013-04-30 09:29:00,
2013-04-30 05:34:00,59.7,58.8,30.06,SE,126,0.0,0.0,97,0.00,,---,0.00,VWS V14.01,2013-04-30 09:34:00,
2013-04-30 05:39:00,59.8,59.0,30.07,SE,126,0.0,1.0,97,0.00,,---,0.00,VWS V14.01,2013-04-30 09:39:00,
2013-04-30 05:44:00,59.8,59.0,30.07,SE,126,0.0,1.0,97,0.00,,---,0.00,VWS V14.01,2013-04-30 09:44:00,
2013-04-30 05:49:00,59.8,59.0,30.07,NE,55,0.0,2.0,97,0.00,,---,0.00,VWS V14.01,2013-04-30 09:49:00,
2013-04-30 05:54:00,59.8,59.0,30.07,NE,55,0.0,2.0,97,0.00,,---,0.00,VWS V14.01,2013-04-30 09:54:00,
2013-04-30 06:00:00,59.9,59.0,30.07,ENE,61,1.0,2.0,97,0.00,,---,0.00,VWS V14.01,2013-04-30 10:00:00,
2013-04-30 06:05:00,59.9,59.0,30.07,ENE,61,0.0,1.0,97,0.00,,---,0.00,VWS V14.01,2013-04-30 10:05:00,
2013-04-30 06:10:00,59.9,59.0,30.07,NE,47,0.0,2.0,97,0.00,,---,0.00,VWS V14.01,2013-04-30 10:10:00,
2013-04-30 06:15:00,59.9,59.0,30.08,North,11,0.0,2.0,97,0.00,,---,0.00,VWS V14.01,2013-04-30 10:15:00,
2013-04-30 06:20:00,60.0,59.2,30.08,NNW,348,0.0,3.0,97,0.00,,---,0.00,VWS V14.01,2013-04-30 10:20:00,
2013-04-30 06:25:00,60.0,59.2,30.08,NNW,340,3.0,4.0,97,0.00,,---,0.00,VWS V14.01,2013-04-30 10:25:00,
2013-04-30 06:30:00,60.0,59.2,30.08,NNW,340,0.0,4.0,97,0.00,,---,0.00,VWS V14.01,2013-04-30 10:30:00,
2013-04-30 06:35:00,60.1,59.2,30.08,NNW,340,0.0,0.0,97,0.00,,---,0.00,VWS V14.01,2013-04-30 10:35:00,
2013-04-30 06:40:00,60.1,59.2,30.09,North,5,0.0,1.0,97,0.00,,---,0.00,VWS V14.01,2013-04-30 10:40:00,
2013-04-30 06:45:00,60.1,59.2,30.09,North,5,0.0,1.0,97,0.00,,---,0.00,VWS V14.01,2013-04-30 10:45:00,
2013-04-30 06:50:00,60.2,59.3,30.09,North,5,0.0,1.0,97,0.00,,---,0.00,VWS V14.01,2013-04-30 10:50:00,
2013-04-30 06:55:00,60.2,59.3,30.09,ENE,71,0.0,2.0,97,0.00,,---,0.00,VWS V14.01,2013-04-30 10:55:00,
2013-04-30 07:00:00,60.3,59.5,30.09,ENE,71,0.0,2.0,97,0.00,,---,0.00,VWS V14.01,2013-04-30 11:00:00,
2013-04-30 07:05:00,60.3,59.5,30.10,ENE,71,0.0,0.0,97,0.00,,---,0.00,VWS V14.01,2013-04-30 11:05:00,
2013-04-30 07:11:00,60.3,59.5,30.10,ENE,71,0.0,1.0,97,0.00,,---,0.00,VWS V14.01,2013-04-30 11:11:00,
2013-04-30 07:16:00,60.4,59.5,30.10,ENE,59,0.0,2.0,97,0.00,,---,0.00,VWS V14.01,2013-04-30 11:16:00,
2013-04-30 07:21:00,60.4,59.5,30.10,ENE,61,0.0,1.0,97,0.00,,---,0.00,VWS V14.01,2013-04-30 11:21:00,
2013-04-30 07:26:00,60.5,59.7,30.10,ENE,65,0.0,2.0,97,0.00,,---,0.00,VWS V14.01,2013-04-30 11:26:00,
2013-04-30 07:31:00,60.5,59.7,30.11,ENE,63,0.0,0.0,97,0.00,,---,0.00,VWS V14.01,2013-04-30 11:31:00,
2013-04-30 07:36:00,60.5,59.7,30.11,ENE,59,0.0,1.0,97,0.00,,---,0.00,VWS V14.01,2013-04-30 11:36:00,
2013-04-30 07:41:00,60.6,59.8,30.11,ENE,59,0.0,1.0,97,0.00,,---,0.00,VWS V14.01,2013-04-30 11:41:00,
2013-04-30 07:46:00,60.7,59.8,30.11,ENE,61,0.0,0.0,97,0.00,,---,0.00,VWS V14.01,2013-04-30 11:46:00,
2013-04-30 07:51:00,60.7,60.1,30.12,ENE,61,0.0,1.0,98,0.00,,---,0.00,VWS V14.01,2013-04-30 11:51:00,
2013-04-30 07:56:00,60.8,60.2,30.11,ENE,78,0.0,3.0,98,0.00,,---,0.00,VWS V14.01,2013-04-30 11:56:00,
2013-04-30 08:01:00,60.9,60.3,30.12,East,94,0.0,0.0,98,0.00,,---,0.00,VWS V14.01,2013-04-30 12:01:00,
2013-04-30 08:06:00,61.0,60.4,30.12,ENE,62,0.0,2.0,98,0.00,,---,0.00,VWS V14.01,2013-04-30 12:06:00,
2013-04-30 08:11:00,61.1,60.2,30.12,ENE,62,0.0,2.0,97,0.00,,---,0.00,VWS V14.01,2013-04-30 12:11:00,
2013-04-30 08:16:00,61.1,60.2,30.12,ENE,63,1.0,2.0,97,0.00,,---,0.00,VWS V14.01,2013-04-30 12:16:00,
2013-04-30 08:22:00,61.2,60.3,30.12,ENE,67,0.0,2.0,97,0.00,,---,0.00,VWS V14.01,2013-04-30 12:22:00,
2013-04-30 08:27:00,61.3,60.4,30.12,ESE,117,1.0,3.0,97,0.00,,---,0.00,VWS V14.01,2013-04-30 12:27:00,
2013-04-30 08:32:00,61.3,60.4,30.12,NE,34,3.0,5.0,97,0.00,,---,0.00,VWS V14.01,2013-04-30 12:32:00,
2013-04-30 08:37:00,61.4,60.8,30.12,NNE,19,0.0,5.0,98,0.00,,---,0.00,VWS V14.01,2013-04-30 12:37:00,
2013-04-30 08:42:00,61.4,60.8,30.12,ESE,115,0.0,5.0,98,0.00,,---,0.00,VWS V14.01,2013-04-30 12:42:00,
2013-04-30 08:47:00,61.4,60.8,30.12,ESE,111,0.0,1.0,98,0.00,,---,0.00,VWS V14.01,2013-04-30 12:47:00,
2013-04-30 08:52:00,61.5,60.9,30.13,East,101,3.0,3.0,98,0.00,,---,0.00,VWS V14.01,2013-04-30 12:52:00,
2013-04-30 08:57:00,61.5,60.9,30.13,ESE,118,3.0,5.0,98,0.00,,---,0.00,VWS V14.01,2013-04-30 12:57:00,
2013-04-30 09:02:00,61.4,60.8,30.13,ESE,118,0.0,2.0,98,0.00,,---,0.00,VWS V14.01,2013-04-30 13:02:00,
2013-04-30 09:07:00,61.3,60.4,30.13,ESE,120,2.0,5.0,97,0.00,,---,0.00,VWS V14.01,2013-04-30 13:07:00,
2013-04-30 09:12:00,61.2,60.3,30.13,NNE,13,0.0,5.0,97,0.00,,---,0.00,VWS V14.01,2013-04-30 13:12:00,
2013-04-30 09:17:00,61.3,60.4,30.13,SSE,154,0.0,3.0,97,0.00,,---,0.00,VWS V14.01,2013-04-30 13:17:00,
2013-04-30 09:22:00,61.3,60.4,30.13,ENE,67,0.0,3.0,97,0.00,,---,0.00,VWS V14.01,2013-04-30 13:22:00,
2013-04-30 09:27:00,61.5,60.9,30.13,ESE,102,2.0,3.0,98,0.00,,---,0.00,VWS V14.01,2013-04-30 13:27:00,
2013-04-30 09:32:00,61.6,61.0,30.13,ENE,78,0.0,2.0,98,0.00,,---,0.00,VWS V14.01,2013-04-30 13:32:00,
2013-04-30 09:38:00,61.9,61.0,30.13,East,101,0.0,2.0,97,0.00,,---,0.00,VWS V14.01,2013-04-30 13:38:00,
2013-04-30 09:43:00,61.9,61.0,30.13,ESE,104,0.0,3.0,97,0.00,,---,0.00,VWS V14.01,2013-04-30 13:43:00,
2013-04-30 09:48:00,62.0,61.1,30.13,ESE,116,2.0,2.0,97,0.00,,---,0.00,VWS V14.01,2013-04-30 13:48:00,
2013-04-30 09:53:00,61.9,61.0,30.13,ESE,119,0.0,3.0,97,0.00,,---,0.00,VWS V14.01,2013-04-30 13:53:00,
2013-04-30 09:58:00,62.0,61.1,30.13,NE,54,3.0,3.0,97,0.00,,---,0.00,VWS V14.01,2013-04-30 13:58:00,
2013-04-30 10:03:00,62.0,61.1,30.14,East,98,1.0,2.0,97,0.00,,---,0.00,VWS V14.01,2013-04-30 14:03:00,
2013-04-30 10:08:00,62.0,61.1,30.14,ESE,120,1.0,3.0,97,0.00,,---,0.00,VWS V14.01,2013-04-30 14:08:00,
2013-04-30 10:13:00,62.1,61.2,30.14,ESE,103,0.0,5.0,97,0.00,,---,0.00,VWS V14.01,2013-04-30 14:13:00,
2013-04-30 10:18:00,62.1,61.2,30.14,East,101,2.0,5.0,97,0.00,,---,0.00,VWS V14.01,2013-04-30 14:18:00,
2013-04-30 10:23:00,62.1,61.2,30.14,East,90,0.0,5.0,97,0.00,,---,0.00,VWS V14.01,2013-04-30 14:23:00,
2013-04-30 10:28:00,62.1,61.2,30.14,NE,42,0.0,5.0,97,0.00,,---,0.00,VWS V14.01,2013-04-30 14:28:00,
2013-04-30 10:33:00,62.3,61.4,30.14,East,96,0.0,1.0,97,0.00,,---,0.00,VWS V14.01,2013-04-30 14:33:00,
2013-04-30 10:38:00,62.4,61.5,30.14,East,88,0.0,2.0,97,0.00,,---,0.00,VWS V14.01,2013-04-30 14:38:00,
2013-04-30 10:43:00,62.6,61.7,30.14,ESE,115,0.0,3.0,97,0.00,,---,0.00,VWS V14.01,2013-04-30 14:43:00,
2013-04-30 10:49:00,62.7,61.8,30.14,ENE,78,2.0,2.0,97,0.00,,---,0.00,VWS V14.01,2013-04-30 14:49:00,
2013-04-30 10:54:00,62.9,62.0,30.14,East,87,0.0,3.0,97,0.00,,---,0.00,VWS V14.01,2013-04-30 14:54:00,
2013-04-30 10:59:00,63.2,62.3,30.14,East,92,1.0,3.0,97,0.00,,---,0.00,VWS V14.01,2013-04-30 14:59:00,
2013-04-30 11:04:00,63.5,62.6,30.14,East,96,0.0,3.0,97,0.00,,---,0.00,VWS V14.01,2013-04-30 15:04:00,
2013-04-30 11:09:00,63.6,62.4,30.14,ESE,117,0.0,3.0,96,0.00,,---,0.00,VWS V14.01,2013-04-30 15:09:00,
2013-04-30 11:14:00,63.7,62.5,30.14,NNE,31,0.0,3.0,96,0.00,,---,0.00,VWS V14.01,2013-04-30 15:14:00,
2013-04-30 11:19:00,63.8,62.3,30.14,East,96,0.0,3.0,95,0.00,,---,0.00,VWS V14.01,2013-04-30 15:19:00,
2013-04-30 11:24:00,64.0,62.2,30.15,East,92,1.0,3.0,94,0.00,,---,0.00,VWS V14.01,2013-04-30 15:24:00,
2013-04-30 11:29:00,64.1,62.3,30.15,SE,126,0.0,4.0,94,0.00,,---,0.00,VWS V14.01,2013-04-30 15:29:00,
2013-04-30 11:34:00,64.2,62.1,30.15,SE,140,2.0,3.0,93,0.00,,---,0.00,VWS V14.01,2013-04-30 15:34:00,
2013-04-30 11:39:00,64.5,62.1,30.15,NE,37,1.0,3.0,92,0.00,,---,0.00,VWS V14.01,2013-04-30 15:39:00,
2013-04-30 11:45:00,64.6,62.2,30.15,NE,54,2.0,3.0,92,0.00,,---,0.00,VWS V14.01,2013-04-30 15:45:00,
2013-04-30 11:50:00,64.7,62.0,30.15,NE,53,1.0,4.0,91,0.00,,---,0.00,VWS V14.01,2013-04-30 15:50:00,
2013-04-30 11:55:00,64.9,62.2,30.15,East,88,3.0,4.0,91,0.00,,---,0.00,VWS V14.01,2013-04-30 15:55:00,
2013-04-30 12:00:00,65.0,62.0,30.15,ESE,107,1.0,5.0,90,0.00,,---,0.00,VWS V14.01,2013-04-30 16:00:00,
2013-04-30 12:05:00,65.1,61.8,30.15,East,93,0.0,5.0,89,0.00,,---,0.00,VWS V14.01,2013-04-30 16:05:00,
2013-04-30 12:10:00,65.0,61.7,30.15,ENE,57,2.0,5.0,89,0.00,,---,0.00,VWS V14.01,2013-04-30 16:10:00,
2013-04-30 12:15:00,65.0,61.4,30.15,ESE,121,3.0,5.0,88,0.00,,---,0.00,VWS V14.01,2013-04-30 16:15:00,
2013-04-30 12:20:00,65.1,61.5,30.15,ESE,118,1.0,3.0,88,0.00,,---,0.00,VWS V14.01,2013-04-30 16:20:00,
2013-04-30 12:25:00,65.1,61.5,30.15,ENE,60,1.0,5.0,88,0.00,,---,0.00,VWS V14.01,2013-04-30 16:25:00,
2013-04-30 12:30:00,65.0,61.4,30.15,NW,309,1.0,5.0,88,0.00,,---,0.00,VWS V14.01,2013-04-30 16:30:00,
2013-04-30 12:35:00,65.1,61.5,30.15,NNW,340,1.0,3.0,88,0.00,,---,0.00,VWS V14.01,2013-04-30 16:35:00,
2013-04-30 12:40:00,65.1,61.5,30.15,North,355,2.0,5.0,88,0.00,,---,0.00,VWS V14.01,2013-04-30 16:40:00,
2013-04-30 12:45:00,65.2,61.6,30.14,NNW,341,0.0,5.0,88,0.00,,---,0.00,VWS V14.01,2013-04-30 16:45:00,
2013-04-30 12:50:00,65.0,61.0,30.15,ESE,117,1.0,5.0,87,0.00,,---,0.00,VWS V14.01,2013-04-30 16:50:00,
2013-04-30 12:56:00,65.1,61.5,30.15,WNW,292,0.0,5.0,88,0.00,,---,0.00,VWS V14.01,2013-04-30 16:56:00,
2013-04-30 13:01:00,65.2,61.2,30.14,ESE,117,0.0,5.0,87,0.00,,---,0.00,VWS V14.01,2013-04-30 17:01:00,
2013-04-30 13:06:00,65.4,61.4,30.14,ESE,123,3.0,5.0,87,0.00,,---,0.00,VWS V14.01,2013-04-30 17:06:00,
2013-04-30 13:11:00,65.6,61.3,30.14,East,99,2.0,8.0,86,0.00,,---,0.00,VWS V14.01,2013-04-30 17:11:00,
2013-04-30 13:16:00,65.8,61.2,30.14,ENE,76,1.0,2.0,85,0.00,,---,0.00,VWS V14.01,2013-04-30 17:16:00,
2013-04-30 13:21:00,66.0,61.4,30.14,ESE,114,3.0,7.0,85,0.00,,---,0.00,VWS V14.01,2013-04-30 17:21:00,
2013-04-30 13:26:00,66.2,61.6,30.14,ESE,120,3.0,7.0,85,0.00,,---,0.00,VWS V14.01,2013-04-30 17:26:00,
2013-04-30 13:31:00,66.2,61.2,30.14,SE,126,0.0,0.0,84,0.00,,---,0.00,VWS V14.01,2013-04-30 17:31:00,
2013-04-30 13:36:00,66.3,61.7,30.14,ESE,110,0.0,3.0,85,0.00,,---,0.00,VWS V14.01,2013-04-30 17:36:00,
2013-04-30 13:41:00,66.3,61.7,30.14,ESE,114,1.0,8.0,85,0.00,,---,0.00,VWS V14.01,2013-04-30 17:41:00,
2013-04-30 13:46:00,66.4,61.4,30.14,NE,43,2.0,7.0,84,0.00,,---,0.00,VWS V14.01,2013-04-30 17:46:00,
2013-04-30 13:51:00,66.5,62.2,30.14,NNW,348,2.0,7.0,86,0.00,,---,0.00,VWS V14.01,2013-04-30 17:51:00,
2013-04-30 13:57:00,66.8,62.5,30.14,NNE,17,2.0,7.0,86,0.00,,---,0.00,VWS V14.01,2013-04-30 17:57:00,
2013-04-30 14:02:00,67.2,62.5,30.14,ESE,103,1.0,5.0,85,0.00,,---,0.00,VWS V14.01,2013-04-30 18:02:00,
2013-04-30 14:07:00,67.5,62.5,30.14,ENE,67,2.0,6.0,84,0.00,,---,0.00,VWS V14.01,2013-04-30 18:07:00,
2013-04-30 14:12:00,67.8,62.1,30.14,SE,127,2.0,6.0,82,0.00,,---,0.00,VWS V14.01,2013-04-30 18:12:00,
2013-04-30 14:17:00,67.9,61.9,30.14,ESE,116,3.0,5.0,81,0.00,,---,0.00,VWS V14.01,2013-04-30 18:17:00,
2013-04-30 14:22:00,68.0,62.7,30.14,NNE,32,1.0,5.0,83,0.00,,---,0.00,VWS V14.01,2013-04-30 18:22:00,
2013-04-30 14:27:00,68.2,62.8,30.14,SE,146,1.0,5.0,83,0.00,,---,0.00,VWS V14.01,2013-04-30 18:27:00,
2013-04-30 14:33:00,68.5,62.5,30.14,East,94,0.0,5.0,81,0.00,,---,0.00,VWS V14.01,2013-04-30 18:33:00,
2013-04-30 14:38:00,68.8,62.0,30.14,ENE,67,2.0,7.0,79,0.00,,---,0.00,VWS V14.01,2013-04-30 18:38:00,
2013-04-30 14:43:00,69.2,62.4,30.14,North,5,4.0,7.0,79,0.00,,---,0.00,VWS V14.01,2013-04-30 18:43:00,
2013-04-30 14:48:00,69.6,62.4,30.14,ESE,115,1.0,4.0,78,0.00,,---,0.00,VWS V14.01,2013-04-30 18:48:00,
2013-04-30 14:53:00,70.1,63.3,30.14,NE,53,1.0,5.0,79,0.00,,---,0.00,VWS V14.01,2013-04-30 18:53:00,
2013-04-30 14:58:00,70.4,62.5,30.13,ESE,104,4.0,8.0,76,0.00,,---,0.00,VWS V14.01,2013-04-30 18:58:00,
2013-04-30 15:03:00,70.5,62.2,30.13,ESE,117,3.0,5.0,75,0.00,,---,0.00,VWS V14.01,2013-04-30 19:03:00,
2013-04-30 15:09:00,70.8,62.9,30.13,SE,134,1.0,7.0,76,0.00,,---,0.00,VWS V14.01,2013-04-30 19:09:00,
2013-04-30 15:14:00,71.0,62.7,30.12,ENE,63,4.0,8.0,75,0.00,,---,0.00,VWS V14.01,2013-04-30 19:14:00,
2013-04-30 15:19:00,71.4,64.2,30.12,NW,314,5.0,6.0,78,0.00,,---,0.00,VWS V14.01,2013-04-30 19:19:00,
2013-04-30 15:24:00,70.4,62.8,30.12,North,10,1.0,6.0,77,0.00,,---,0.00,VWS V14.01,2013-04-30 19:24:00,
2013-04-30 15:29:00,70.2,63.4,30.12,SE,145,2.0,6.0,79,0.00,,---,0.00,VWS V14.01,2013-04-30 19:29:00,
2013-04-30 15:34:00,69.5,62.7,30.12,SW,222,1.0,6.0,79,0.00,,---,0.00,VWS V14.01,2013-04-30 19:34:00,
2013-04-30 15:39:00,71.5,63.5,30.11,ESE,121,3.0,7.0,76,0.00,,---,0.00,VWS V14.01,2013-04-30 19:39:00,
2013-04-30 15:45:00,69.7,61.8,30.11,NE,38,6.0,8.0,76,0.00,,---,0.00,VWS V14.01,2013-04-30 19:45:00,
2013-04-30 15:50:00,68.9,62.5,30.11,ESE,121,1.0,9.0,80,0.00,,---,0.00,VWS V14.01,2013-04-30 19:50:00,
2013-04-30 15:55:00,69.5,62.7,30.11,NNW,342,3.0,9.0,79,0.00,,---,0.00,VWS V14.01,2013-04-30 19:55:00,
2013-04-30 16:00:00,70.6,63.4,30.11,NNW,340,5.0,9.0,78,0.00,,---,0.00,VWS V14.01,2013-04-30 20:00:00,
2013-04-30 16:05:00,69.6,62.4,30.11,East,95,3.0,6.0,78,0.00,,---,0.00,VWS V14.01,2013-04-30 20:05:00,
2013-04-30 16:10:00,69.0,62.2,30.11,NNE,22,2.0,7.0,79,0.00,,---,0.00,VWS V14.01,2013-04-30 20:10:00,
2013-04-30 16:15:00,69.1,63.0,30.11,ENE,76,1.0,7.0,81,0.00,,---,0.00,VWS V14.01,2013-04-30 20:15:00,
2013-04-30 16:20:00,69.9,62.7,30.10,ESE,123,4.0,9.0,78,0.00,,---,0.00,VWS V14.01,2013-04-30 20:20:00,
2013-04-30 16:26:00,69.3,62.2,30.11,ESE,105,1.0,9.0,78,0.00,,---,0.00,VWS V14.01,2013-04-30 20:26:00,
2013-04-30 16:31:00,70.4,62.5,30.11,SE,130,3.0,9.0,76,0.00,,---,0.00,VWS V14.01,2013-04-30 20:31:00,
2013-04-30 16:36:00,70.5,61.8,30.11,NE,50,1.0,10.0,74,0.00,,---,0.00,VWS V14.01,2013-04-30 20:36:00,
2013-04-30 16:41:00,71.5,63.9,30.11,WNW,296,1.0,10.0,77,0.00,,---,0.00,VWS V14.01,2013-04-30 20:41:00,
2013-04-30 16:46:00,71.3,62.6,30.11,East,93,6.0,6.0,74,0.00,,---,0.00,VWS V14.01,2013-04-30 20:46:00,
2013-04-30 16:51:00,71.5,63.2,30.11,NE,56,0.0,6.0,75,0.00,,---,0.00,VWS V14.01,2013-04-30 20:51:00,
2013-04-30 16:56:00,71.3,61.0,30.12,SE,130,0.0,8.0,70,0.00,,---,0.00,VWS V14.01,2013-04-30 20:56:00,
2013-04-30 17:02:00,70.2,61.5,30.12,NNW,336,0.0,4.0,74,0.00,,---,0.00,VWS V14.01,2013-04-30 21:02:00,
2013-04-30 17:07:00,70.8,62.1,30.12,ESE,119,3.0,5.0,74,0.00,,---,0.00,VWS V14.01,2013-04-30 21:07:00,
2013-04-30 17:12:00,71.9,62.4,30.12,East,90,3.0,5.0,72,0.00,,---,0.00,VWS V14.01,2013-04-30 21:12:00,
2013-04-30 17:17:00,71.6,62.5,30.12,NW,325,2.0,3.0,73,0.00,,---,0.00,VWS V14.01,2013-04-30 21:17:00,
2013-04-30 17:22:00,71.4,63.1,30.12,WNW,286,3.0,4.0,75,0.00,,---,0.00,VWS V14.01,2013-04-30 21:22:00,
2013-04-30 17:27:00,72.0,63.7,30.13,ESE,117,0.0,5.0,75,0.00,,---,0.00,VWS V14.01,2013-04-30 21:27:00,
2013-04-30 17:32:00,71.6,61.3,30.13,ESE,109,1.0,7.0,70,0.00,,---,0.00,VWS V14.01,2013-04-30 21:32:00,
2013-04-30 17:38:00,70.5,61.4,30.13,SE,139,2.0,7.0,73,0.00,,---,0.00,VWS V14.01,2013-04-30 21:38:00,
2013-04-30 17:43:00,70.7,61.2,30.13,East,88,3.0,8.0,72,0.00,,---,0.00,VWS V14.01,2013-04-30 21:43:00,
2013-04-30 17:48:00,70.6,60.8,30.13,ESE,122,2.0,6.0,71,0.00,,---,0.00,VWS V14.01,2013-04-30 21:48:00,
2013-04-30 17:53:00,70.8,61.3,30.13,NNW,344,2.0,6.0,72,0.00,,---,0.00,VWS V14.01,2013-04-30 21:53:00,
2013-04-30 17:58:00,71.0,60.7,30.13,NE,56,0.0,6.0,70,0.00,,---,0.00,VWS V14.01,2013-04-30 21:58:00,
2013-04-30 18:03:00,70.9,61.0,30.14,NE,53,0.0,5.0,71,0.00,,---,0.00,VWS V14.01,2013-04-30 22:03:00,
2013-04-30 18:08:00,71.3,62.2,30.14,NNW,333,2.0,6.0,73,0.00,,---,0.00,VWS V14.01,2013-04-30 22:08:00,
2013-04-30 18:13:00,71.6,62.5,30.14,NE,39,8.0,8.0,73,0.00,,---,0.00,VWS V14.01,2013-04-30 22:13:00,
2013-04-30 18:19:00,71.6,61.7,30.14,East,82,0.0,3.0,71,0.00,,---,0.00,VWS V14.01,2013-04-30 22:19:00,
2013-04-30 18:24:00,71.1,61.6,30.15,ENE,73,1.0,6.0,72,0.00,,---,0.00,VWS V14.01,2013-04-30 22:24:00,
2013-04-30 18:29:00,70.4,61.3,30.15,ENE,59,1.0,6.0,73,0.00,,---,0.00,VWS V14.01,2013-04-30 22:29:00,
2013-04-30 18:34:00,69.8,60.4,30.15,NNW,341,1.0,6.0,72,0.00,,---,0.00,VWS V14.01,2013-04-30 22:34:00,
2013-04-30 18:39:00,69.8,61.2,30.15,NNW,336,3.0,7.0,74,0.00,,---,0.00,VWS V14.01,2013-04-30 22:39:00,
2013-04-30 18:44:00,69.6,61.0,30.15,North,360,6.0,8.0,74,0.00,,---,0.00,VWS V14.01,2013-04-30 22:44:00,
2013-04-30 18:49:00,69.2,61.0,30.15,East,84,1.0,5.0,75,0.00,,---,0.00,VWS V14.01,2013-04-30 22:49:00,
2013-04-30 18:54:00,68.8,60.6,30.15,East,94,1.0,6.0,75,0.00,,---,0.00,VWS V14.01,2013-04-30 22:54:00,
2013-04-30 18:59:00,68.5,60.6,30.15,North,11,3.0,10.0,76,0.00,,---,0.00,VWS V14.01,2013-04-30 22:59:00,
2013-04-30 19:05:00,68.1,60.3,30.15,NE,49,0.0,7.0,76,0.00,,---,0.00,VWS V14.01,2013-04-30 23:05:00,
2013-04-30 19:10:00,67.8,60.3,30.15,ENE,66,2.0,7.0,77,0.00,,---,0.00,VWS V14.01,2013-04-30 23:10:00,
2013-04-30 19:15:00,67.5,60.4,30.15,ENE,61,1.0,7.0,78,0.00,,---,0.00,VWS V14.01,2013-04-30 23:15:00,
2013-04-30 19:20:00,67.1,60.0,30.15,SW,223,2.0,6.0,78,0.00,,---,0.00,VWS V14.01,2013-04-30 23:20:00,
2013-04-30 19:25:00,66.9,60.2,30.16,North,355,4.0,6.0,79,0.00,,---,0.00,VWS V14.01,2013-04-30 23:25:00,
2013-04-30 19:30:00,66.6,59.9,30.15,NNE,28,3.0,7.0,79,0.00,,---,0.00,VWS V14.01,2013-04-30 23:30:00,
2013-04-30 19:35:00,66.3,60.0,30.16,ENE,78,3.0,8.0,80,0.00,,---,0.00,VWS V14.01,2013-04-30 23:35:00,
2013-04-30 19:40:00,65.8,59.8,30.16,NNE,16,5.0,8.0,81,0.00,,---,0.00,VWS V14.01,2013-04-30 23:40:00,
2013-04-30 19:46:00,65.4,59.4,30.16,NNE,25,1.0,8.0,81,0.00,,---,0.00,VWS V14.01,2013-04-30 23:46:00,
2013-04-30 19:51:00,65.0,59.4,30.16,East,85,2.0,6.0,82,0.00,,---,0.00,VWS V14.01,2013-04-30 23:51:00,
2013-04-30 19:56:00,64.7,59.1,30.16,NNW,338,2.0,6.0,82,0.00,,---,0.00,VWS V14.01,2013-04-30 23:56:00,
2013-04-30 20:01:00,64.3,58.7,30.17,SSW,194,0.0,0.0,82,0.00,,---,0.00,VWS V14.01,2013-05-01 00:01:00,
2013-04-30 20:06:00,63.9,58.3,30.17,East,90,0.0,2.0,82,0.00,,---,0.00,VWS V14.01,2013-05-01 00:06:00,
2013-04-30 20:11:00,63.5,58.2,30.17,ESE,108,0.0,3.0,83,0.00,,---,0.00,VWS V14.01,2013-05-01 00:11:00,
2013-04-30 20:16:00,63.3,58.4,30.17,NE,47,0.0,2.0,84,0.00,,---,0.00,VWS V14.01,2013-05-01 00:16:00,
2013-04-30 20:21:00,62.9,58.0,30.18,NNW,340,0.0,2.0,84,0.00,,---,0.00,VWS V14.01,2013-05-01 00:21:00,
2013-04-30 20:27:00,62.6,58.0,30.18,NNE,27,0.0,2.0,85,0.00,,---,0.00,VWS V14.01,2013-05-01 00:27:00,
2013-04-30 20:32:00,62.1,57.5,30.18,NNE,27,0.0,0.0,85,0.00,,---,0.00,VWS V14.01,2013-05-01 00:32:00,
2013-04-30 20:37:00,61.5,57.3,30.18,NNE,27,0.0,0.0,86,0.00,,---,0.00,VWS V14.01,2013-05-01 00:37:00,
2013-04-30 20:42:00,61.1,57.2,30.18,NNE,27,0.0,1.0,87,0.00,,---,0.00,VWS V14.01,2013-05-01 00:42:00,
2013-04-30 20:47:00,61.0,57.4,30.18,East,86,0.0,1.0,88,0.00,,---,0.00,VWS V14.01,2013-05-01 00:47:00,
2013-04-30 20:52:00,60.9,57.3,30.18,East,90,0.0,3.0,88,0.00,,---,0.00,VWS V14.01,2013-05-01 00:52:00,
2013-04-30 20:57:00,60.9,57.3,30.18,ENE,65,0.0,6.0,88,0.00,,---,0.00,VWS V14.01,2013-05-01 00:57:00,
2013-04-30 21:02:00,60.9,57.3,30.18,ESE,117,0.0,2.0,88,0.00,,---,0.00,VWS V14.01,2013-05-01 01:02:00,
2013-04-30 21:07:00,60.8,57.2,30.18,NE,42,0.0,3.0,88,0.00,,---,0.00,VWS V14.01,2013-05-01 01:07:00,
2013-04-30 21:13:00,60.7,57.1,30.19,ESE,115,2.0,3.0,88,0.00,,---,0.00,VWS V14.01,2013-05-01 01:13:00,
2013-04-30 21:18:00,60.4,56.8,30.19,NNE,21,0.0,2.0,88,0.00,,---,0.00,VWS V14.01,2013-05-01 01:18:00,
2013-04-30 21:23:00,60.3,57.0,30.19,SE,130,1.0,3.0,89,0.00,,---,0.00,VWS V14.01,2013-05-01 01:23:00,
2013-04-30 21:28:00,60.2,57.0,30.19,ESE,120,4.0,7.0,89,0.00,,---,0.00,VWS V14.01,2013-05-01 01:28:00,
2013-04-30 21:33:00,60.3,57.0,30.19,East,92,0.0,2.0,89,0.00,,---,0.00,VWS V14.01,2013-05-01 01:33:00,
2013-04-30 21:38:00,60.1,56.8,30.19,ENE,77,0.0,4.0,89,0.00,,---,0.00,VWS V14.01,2013-05-01 01:38:00,
2013-04-30 21:43:00,60.0,57.1,30.19,East,96,0.0,4.0,90,0.00,,---,0.00,VWS V14.01,2013-05-01 01:43:00,
2013-04-30 21:48:00,60.0,57.1,30.19,ESE,123,0.0,2.0,90,0.00,,---,0.00,VWS V14.01,2013-05-01 01:48:00,
2013-04-30 21:54:00,59.9,57.0,30.19,ENE,70,0.0,4.0,90,0.00,,---,0.00,VWS V14.01,2013-05-01 01:54:00,
2013-04-30 21:59:00,59.7,56.8,30.19,ESE,105,1.0,4.0,90,0.00,,---,0.00,VWS V14.01,2013-05-01 01:59:00,
2013-04-30 22:04:00,59.6,56.7,30.19,East,90,1.0,2.0,90,0.00,,---,0.00,VWS V14.01,2013-05-01 02:04:00,
2013-04-30 22:09:00,59.5,56.9,30.19,ENE,62,0.0,3.0,91,0.00,,---,0.00,VWS V14.01,2013-05-01 02:09:00,
2013-04-30 22:14:00,59.1,56.5,30.20,NE,36,0.0,3.0,91,0.00,,---,0.00,VWS V14.01,2013-05-01 02:14:00,
2013-04-30 22:19:00,58.9,56.3,30.20,NNE,22,0.0,3.0,91,0.00,,---,0.00,VWS V14.01,2013-05-01 02:19:00,
2013-04-30 22:24:00,58.4,56.1,30.20,East,90,0.0,3.0,92,0.00,,---,0.00,VWS V14.01,2013-05-01 02:24:00,
2013-04-30 22:29:00,58.2,55.9,30.20,NNE,32,0.0,3.0,92,0.00,,---,0.00,VWS V14.01,2013-05-01 02:29:00,
2013-04-30 22:35:00,58.0,56.0,30.21,ENE,63,0.0,2.0,93,0.00,,---,0.00,VWS V14.01,2013-05-01 02:35:00,
2013-04-30 22:40:00,58.1,56.1,30.21,NE,48,1.0,2.0,93,0.00,,---,0.00,VWS V14.01,2013-05-01 02:40:00,
2013-04-30 22:45:00,57.9,55.9,30.21,NNE,16,0.0,2.0,93,0.00,,---,0.00,VWS V14.01,2013-05-01 02:45:00,
2013-04-30 22:50:00,57.7,55.7,30.21,ENE,59,0.0,3.0,93,0.00,,---,0.00,VWS V14.01,2013-05-01 02:50:00,
2013-04-30 22:55:00,57.6,55.6,30.20,NE,34,0.0,3.0,93,0.00,,---,0.00,VWS V14.01,2013-05-01 02:55:00,
2013-04-30 23:00:00,57.6,55.6,30.21,NE,37,0.0,3.0,93,0.00,,---,0.00,VWS V14.01,2013-05-01 03:00:00,
2013-04-30 23:05:00,57.5,55.5,30.20,ENE,70,0.0,2.0,93,0.00,,---,0.00,VWS V14.01,2013-05-01 03:05:00,
2013-04-30 23:10:00,57.5,55.8,30.21,ESE,112,0.0,3.0,94,0.00,,---,0.00,VWS V14.01,2013-05-01 03:10:00,
2013-04-30 23:15:00,57.3,55.3,30.21,ESE,103,0.0,3.0,93,0.00,,---,0.00,VWS V14.01,2013-05-01 03:15:00,
2013-04-30 23:20:00,57.2,55.5,30.21,ESE,102,0.0,2.0,94,0.00,,---,0.00,VWS V14.01,2013-05-01 03:20:00,
2013-04-30 23:26:00,56.9,54.9,30.21,ESE,102,0.0,2.0,93,0.00,,---,0.00,VWS V14.01,2013-05-01 03:26:00,
2013-04-30 23:31:00,56.8,55.1,30.21,ESE,102,0.0,2.0,94,0.00,,---,0.00,VWS V14.01,2013-05-01 03:31:00,
2013-04-30 23:36:00,56.6,54.9,30.21,ESE,102,0.0,1.0,94,0.00,,---,0.00,VWS V14.01,2013-05-01 03:36:00,
2013-04-30 23:41:00,56.4,54.7,30.21,ESE,102,0.0,1.0,94,0.00,,---,0.00,VWS V14.01,2013-05-01 03:41:00,
2013-04-30 23:46:00,56.2,54.5,30.21,ESE,102,0.0,0.0,94,0.00,,---,0.00,VWS V14.01,2013-05-01 03:46:00,
2013-04-30 23:51:00,56.0,54.3,30.21,ESE,102,0.0,0.0,94,0.00,,---,0.00,VWS V14.01,2013-05-01 03:51:00,
2013-04-30 23:56:00,55.9,54.2,30.21,ESE,102,0.0,0.0,94,0.00,,---,0.00,VWS V14.01,2013-05-01 03:56:00,